Main page
METAR-TAF:

METAR-TAF

Airports :

Bodø Airport

Bodø, Norway

latitude: 67-16N, longitude: 014-22E, elevation: 1 m

Current weather observation

The report was made 26 minutes ago, at 04:20 UTC
Wind 7 kt from the East
Temperature 5°C
Humidity 75%
Pressure 996 hPa
Visibility 10 km or more
Few clouds at a height of 1500 ft
Broken clouds at a height of 5000 ft

METAR: ENBO 270420Z 10007KT 9999 FEW015 BKN050 05/01 Q0996 NOSIG

Time: 06:46 (04:46 UTC)

Forecast

Forecast valid from 27 at 00 UTC to 27 at 24 UTC
Wind 8 kt from the Southwest
Visibility 10 km or more
Few clouds at a height of 2000 ft, Towering cumulus.
Scattered clouds at a height of 4000 ft

TAF: ENBO 2700/2724 22008KT 9999 FEW020TCU SCT040

Weather observations and forecasts of more than 4000 airports (METAR and TAF reports).

The available stations are represented by yellow and red dots on the map.

Hover mouse over dot to see the name of the station.

Then click to see weather observations and forecasts.

To change the map : click on the green buttons with a black cross to zoom in, on the green button with a dash to zoom out, or on the green arrows for adjacent maps.


METAR-TAF: